createdAt,value
2022-09-19T00:00:11.064Z,20.80
2022-09-19T00:02:42.662Z,28.00
2022-09-19T00:05:12.284Z,26.55
2022-09-19T00:07:43.762Z,12.68
2022-09-19T00:10:14.504Z,3.78
2022-09-19T00:12:42.765Z,5.05
2022-09-19T00:15:11.372Z,3.90
2022-09-19T00:17:42.181Z,4.03
2022-09-19T00:20:11.444Z,4.65
2022-09-19T00:23:07.213Z,2.85
2022-09-19T00:25:36.815Z,4.22
2022-09-19T00:28:08.691Z,3.35
2022-09-19T00:30:45.199Z,2.53
2022-09-19T00:33:18.707Z,4.20
2022-09-19T00:35:49.554Z,5.93
2022-09-19T00:38:19.665Z,4.60
2022-09-19T00:41:05.911Z,3.93
2022-09-19T00:43:57.073Z,1.73
2022-09-19T00:46:32.041Z,2.03
2022-09-19T00:49:29.993Z,2.83
2022-09-19T00:52:05.501Z,2.08
2022-09-19T00:54:44.055Z,3.55
2022-09-19T00:57:23.207Z,2.35
2022-09-19T00:59:51.274Z,1.70
2022-09-19T01:02:32.107Z,2.22
2022-09-19T01:05:04.045Z,2.17
2022-09-19T01:08:17.230Z,3.05
2022-09-19T01:11:02.468Z,3.70
2022-09-19T01:14:05.239Z,3.95
2022-09-19T01:17:08.600Z,3.78
2022-09-19T01:20:38.852Z,3.60
2022-09-19T01:23:27.215Z,2.80
2022-09-19T01:26:21.177Z,2.70
2022-09-19T01:29:00.451Z,3.83
2022-09-19T01:31:41.837Z,1.55
2022-09-19T01:34:19.320Z,2.50
2022-09-19T01:37:04.654Z,1.42
2022-09-19T01:39:43.255Z,1.83
2022-09-19T01:42:19.031Z,2.85
2022-09-19T01:44:49.461Z,1.63
2022-09-19T01:47:44.660Z,2.88
2022-09-19T01:50:51.389Z,5.28
2022-09-19T01:53:50.955Z,2.60
2022-09-19T01:56:53.744Z,1.80
2022-09-19T01:59:52.527Z,1.80
2022-09-19T02:02:38.218Z,1.95
2022-09-19T02:05:40.735Z,4.47
2022-09-19T02:08:30.350Z,1.90
2022-09-19T02:11:26.815Z,2.00
2022-09-19T02:14:25.520Z,3.20
2022-09-19T02:17:15.071Z,2.53
2022-09-19T02:20:02.558Z,1.42
2022-09-19T02:22:42.948Z,2.00
2022-09-19T02:25:20.063Z,3.25
2022-09-19T02:28:04.631Z,2.25
2022-09-19T02:30:39.831Z,1.23
2022-09-19T02:33:11.837Z,4.22
2022-09-19T02:36:16.642Z,2.75
2022-09-19T02:38:47.827Z,2.92
2022-09-19T02:41:58.677Z,1.70
2022-09-19T02:44:42.577Z,3.60
2022-09-19T02:47:28.194Z,1.90
2022-09-19T02:50:26.600Z,3.15
2022-09-19T02:52:59.797Z,3.03
2022-09-19T02:55:42.756Z,1.70
2022-09-19T02:58:12.631Z,1.73
2022-09-19T03:00:43.664Z,3.25
2022-09-19T03:03:49.748Z,2.15
2022-09-19T03:06:22.587Z,1.67
2022-09-19T03:08:58.612Z,2.15
2022-09-19T03:11:32.936Z,2.72
2022-09-19T03:14:05.120Z,1.77
2022-09-19T03:16:40.078Z,1.40
2022-09-19T03:19:14.675Z,2.33
2022-09-19T03:21:47.439Z,2.17
2022-09-19T03:24:20.439Z,2.50
2022-09-19T03:26:52.975Z,1.65
2022-09-19T03:29:22.142Z,3.85
2022-09-19T03:32:01.099Z,4.90
2022-09-19T03:34:37.811Z,2.45
2022-09-19T03:37:11.009Z,3.53
2022-09-19T03:39:45.877Z,2.40
2022-09-19T03:42:20.862Z,2.38
2022-09-19T03:47:29.559Z,2.88
2022-09-19T03:50:02.483Z,3.25
2022-09-19T03:52:37.898Z,3.25
2022-09-19T03:55:12.791Z,2.57
2022-09-19T03:57:49.039Z,2.17
2022-09-19T04:00:23.975Z,3.15
2022-09-19T04:03:00.400Z,7.63
2022-09-19T04:05:36.126Z,5.80
2022-09-19T04:08:09.635Z,5.05
2022-09-19T04:10:41.282Z,6.03
2022-09-19T04:13:15.729Z,4.03
2022-09-19T04:15:46.516Z,5.18
2022-09-19T04:18:19.911Z,4.07
2022-09-19T04:20:53.879Z,3.58
2022-09-19T04:23:49.332Z,5.78
2022-09-19T04:26:39.073Z,5.65
2022-09-19T04:29:12.627Z,5.90
2022-09-19T04:31:42.835Z,5.80
2022-09-19T04:34:16.465Z,7.38
2022-09-19T04:36:54.412Z,5.25
2022-09-19T04:39:28.970Z,5.25
2022-09-19T04:41:58.001Z,7.45
2022-09-19T04:44:33.520Z,6.53
2022-09-19T04:47:17.187Z,7.07
2022-09-19T04:49:45.505Z,6.03
2022-09-19T04:52:18.492Z,7.28
2022-09-19T04:54:53.979Z,4.90
2022-09-19T04:57:36.718Z,5.18
2022-09-19T05:00:15.609Z,4.57
2022-09-19T05:02:50.391Z,9.30
2022-09-19T05:05:20.596Z,7.07
2022-09-19T05:07:49.322Z,4.72
2022-09-19T05:10:20.971Z,3.72
2022-09-19T05:12:51.711Z,4.50
2022-09-19T05:15:25.841Z,5.95
2022-09-19T05:17:56.887Z,6.55
2022-09-19T05:20:33.257Z,5.20
2022-09-19T05:23:08.829Z,7.95
2022-09-19T05:25:40.860Z,9.75
2022-09-19T05:28:16.459Z,10.13
2022-09-19T05:30:58.120Z,5.15
2022-09-19T05:33:36.425Z,5.20
2022-09-19T05:36:08.198Z,4.30
2022-09-19T05:39:03.230Z,6.60
2022-09-19T05:41:39.893Z,8.75
2022-09-19T05:44:26.391Z,7.28
2022-09-19T05:47:01.870Z,4.95
2022-09-19T05:49:36.134Z,8.75
2022-09-19T05:52:28.905Z,4.10
2022-09-19T05:55:02.762Z,6.35
2022-09-19T05:58:00.919Z,3.03
2022-09-19T06:00:33.999Z,4.00
2022-09-19T06:03:04.932Z,4.28
2022-09-19T06:05:51.237Z,5.28
2022-09-19T06:11:10.006Z,5.30
2022-09-19T06:14:03.804Z,4.70
2022-09-19T06:16:36.253Z,4.25
2022-09-19T06:19:21.779Z,3.25
2022-09-19T06:22:05.393Z,4.72
2022-09-19T06:24:34.586Z,9.68
2022-09-19T06:27:04.539Z,6.18
2022-09-19T06:29:38.599Z,7.63
2022-09-19T06:32:33.312Z,6.28
2022-09-19T06:35:24.453Z,9.65
2022-09-19T06:38:04.212Z,4.63
2022-09-19T06:40:35.149Z,5.50
2022-09-19T06:43:17.784Z,9.77
2022-09-19T06:46:25.628Z,8.00
2022-09-19T06:49:33.877Z,8.27
2022-09-19T06:52:26.775Z,11.38
2022-09-19T06:55:16.905Z,14.13
2022-09-19T06:58:09.468Z,17.90
2022-09-19T07:01:01.301Z,19.65
2022-09-19T07:03:53.899Z,29.05
2022-09-19T07:06:35.913Z,13.25
2022-09-19T07:09:33.037Z,12.93
2022-09-19T07:12:04.689Z,14.00
2022-09-19T07:14:35.574Z,9.90
2022-09-19T07:17:08.317Z,8.70
2022-09-19T07:20:00.556Z,10.55
2022-09-19T07:22:38.702Z,7.90
2022-09-19T07:25:36.628Z,7.47
2022-09-19T07:28:27.464Z,8.35
2022-09-19T07:33:56.350Z,7.25
2022-09-19T07:36:32.500Z,11.50
2022-09-19T07:39:09.537Z,8.73
2022-09-19T07:41:59.858Z,4.85
2022-09-19T07:45:09.451Z,6.82
2022-09-19T07:48:00.734Z,9.38
2022-09-19T07:50:56.794Z,8.95
2022-09-19T07:53:52.757Z,8.77
2022-09-19T07:56:32.243Z,6.25
2022-09-19T07:59:03.616Z,5.35
2022-09-19T08:01:53.791Z,14.38
2022-09-19T08:04:41.321Z,5.28
2022-09-19T08:07:12.745Z,4.85
2022-09-19T08:09:42.777Z,5.50
2022-09-19T08:12:18.163Z,5.28
2022-09-19T08:15:12.813Z,4.03
2022-09-19T08:17:43.645Z,5.60
2022-09-19T08:20:13.714Z,5.38
2022-09-19T08:22:50.215Z,5.82
2022-09-19T08:25:18.262Z,4.55
2022-09-19T08:27:49.982Z,3.38
2022-09-19T08:30:19.367Z,3.65
2022-09-19T08:33:12.266Z,4.13
2022-09-19T08:35:48.184Z,4.57
2022-09-19T08:38:34.246Z,5.93
2022-09-19T08:41:15.312Z,2.47
2022-09-19T08:44:18.128Z,6.55
2022-09-19T08:47:22.131Z,3.78
2022-09-19T08:52:53.161Z,7.28
2022-09-19T08:55:35.732Z,2.90
2022-09-19T08:58:27.480Z,3.30
2022-09-19T09:01:18.955Z,8.38
2022-09-19T09:04:37.344Z,4.82
2022-09-19T09:07:35.794Z,9.75
2022-09-19T09:10:33.809Z,8.70
2022-09-19T09:14:00.785Z,7.57
2022-09-19T09:17:06.240Z,10.40
2022-09-19T09:19:41.462Z,9.50
2022-09-19T09:22:30.255Z,11.97
2022-09-19T09:25:38.380Z,8.50
2022-09-19T09:28:33.935Z,5.32
2022-09-19T09:31:50.904Z,8.43
2022-09-19T09:35:12.065Z,7.10
2022-09-19T09:37:50.561Z,4.40
2022-09-19T09:41:03.641Z,4.35
2022-09-19T09:44:05.101Z,5.05
2022-09-19T09:47:14.677Z,6.43
2022-09-19T09:49:45.845Z,4.57
2022-09-19T09:52:35.124Z,3.28
2022-09-19T09:55:34.314Z,6.80
2022-09-19T09:58:51.367Z,3.67
2022-09-19T10:02:17.220Z,4.88
2022-09-19T10:05:00.674Z,4.60
2022-09-19T10:07:46.918Z,5.70
2022-09-19T10:10:24.160Z,4.18
2022-09-19T10:13:11.680Z,4.97
2022-09-19T10:15:41.799Z,3.80
2022-09-19T10:18:16.916Z,6.70
2022-09-19T10:21:01.952Z,4.60
2022-09-19T10:23:36.438Z,4.85
2022-09-19T10:26:22.643Z,4.28
2022-09-19T10:29:01.419Z,3.40
2022-09-19T10:32:09.115Z,3.35
2022-09-19T10:35:35.057Z,6.47
2022-09-19T10:38:19.387Z,10.00
2022-09-19T10:41:12.357Z,6.65
2022-09-19T10:46:43.697Z,6.93
2022-09-19T10:49:53.551Z,10.70
2022-09-19T10:52:52.237Z,6.00
2022-09-19T10:55:26.195Z,6.13
2022-09-19T10:58:16.183Z,7.72
2022-09-19T11:00:54.494Z,12.05
2022-09-19T11:03:29.875Z,6.70
2022-09-19T11:06:22.494Z,9.70
2022-09-19T11:08:59.784Z,6.85
2022-09-19T11:11:56.546Z,3.28
2022-09-19T11:14:42.096Z,7.90
2022-09-19T11:17:27.606Z,4.70
2022-09-19T11:20:48.980Z,5.93
2022-09-19T11:23:55.837Z,4.95
2022-09-19T11:26:56.381Z,3.88
2022-09-19T11:29:58.402Z,2.03
2022-09-19T11:33:02.081Z,5.10
2022-09-19T11:36:29.343Z,3.67
2022-09-19T11:39:54.124Z,5.30
2022-09-19T11:42:52.876Z,4.53
2022-09-19T11:45:26.725Z,3.17
2022-09-19T11:48:30.043Z,3.20
2022-09-19T11:51:28.403Z,3.35
2022-09-19T11:54:21.348Z,2.53
2022-09-19T11:57:16.723Z,2.00
2022-09-19T12:00:17.560Z,3.25
2022-09-19T12:03:43.693Z,2.47
2022-09-19T12:07:06.275Z,1.88
2022-09-19T12:09:47.139Z,2.70
2022-09-19T12:12:20.476Z,2.78
2022-09-19T12:15:32.251Z,3.05
2022-09-19T12:18:37.595Z,3.22
2022-09-19T12:21:13.641Z,4.40
2022-09-19T12:24:15.735Z,7.38
2022-09-19T12:27:03.548Z,5.68
2022-09-19T12:30:24.711Z,7.07
2022-09-19T12:33:27.834Z,4.10
2022-09-19T12:39:23.764Z,4.40
2022-09-19T12:41:59.765Z,3.70
2022-09-19T12:44:53.456Z,5.40
2022-09-19T12:47:57.681Z,5.85
2022-09-19T12:50:52.275Z,6.15
2022-09-19T12:53:55.940Z,5.78
2022-09-19T12:56:44.353Z,7.13
2022-09-19T12:59:14.535Z,9.30
2022-09-19T13:02:27.257Z,7.68
2022-09-19T13:05:30.846Z,5.55
2022-09-19T13:08:16.410Z,4.22
2022-09-19T13:11:28.085Z,3.80
2022-09-19T13:14:34.587Z,5.80
2022-09-19T13:17:23.326Z,3.17
2022-09-19T13:20:15.497Z,2.83
2022-09-19T13:23:17.375Z,2.55
2022-09-19T13:25:47.565Z,3.58
2022-09-19T13:28:35.300Z,2.28
2022-09-19T13:31:19.822Z,2.00
2022-09-19T13:34:02.563Z,2.58
2022-09-19T13:36:33.337Z,2.13
2022-09-19T13:39:07.531Z,1.45
2022-09-19T13:41:55.141Z,2.40
2022-09-19T13:44:50.458Z,1.75
2022-09-19T13:50:35.535Z,2.72
2022-09-19T13:53:10.570Z,2.38
2022-09-19T13:55:45.194Z,5.85
2022-09-19T13:58:38.348Z,4.75
2022-09-19T14:01:33.301Z,5.15
2022-09-19T14:04:27.930Z,4.13
2022-09-19T14:10:00.935Z,4.20
2022-09-19T14:15:07.159Z,4.00
2022-09-19T14:17:38.456Z,4.68
2022-09-19T14:20:45.474Z,5.95
2022-09-19T14:23:29.486Z,4.10
2022-09-19T14:26:29.975Z,4.97
2022-09-19T14:29:32.350Z,6.47
2022-09-19T14:32:41.060Z,4.82
2022-09-19T14:35:49.112Z,4.90
2022-09-19T14:39:13.416Z,3.80
2022-09-19T14:42:09.990Z,4.68
2022-09-19T14:45:04.174Z,4.95
2022-09-19T14:47:46.864Z,4.53
2022-09-19T14:50:53.688Z,7.53
2022-09-19T14:53:26.956Z,3.17
2022-09-19T14:56:10.744Z,3.30
2022-09-19T14:58:40.827Z,8.75
2022-09-19T15:01:17.139Z,8.20
2022-09-19T15:04:23.194Z,7.65
2022-09-19T15:07:00.750Z,7.13
2022-09-19T15:09:44.676Z,7.72
2022-09-19T15:12:45.176Z,6.80
2022-09-19T15:15:20.888Z,7.13
2022-09-19T15:17:52.875Z,3.53
2022-09-19T15:20:24.171Z,4.43
2022-09-19T15:23:06.096Z,8.10
2022-09-19T15:25:41.207Z,5.70
2022-09-19T15:28:40.578Z,6.75
2022-09-19T15:31:26.732Z,5.05
2022-09-19T15:34:24.814Z,5.60
2022-09-19T15:36:59.653Z,5.80
2022-09-19T15:39:29.645Z,7.55
2022-09-19T15:42:02.063Z,6.82
2022-09-19T15:44:32.307Z,7.85
2022-09-19T15:47:07.752Z,8.63
2022-09-19T15:49:44.238Z,4.68
2022-09-19T15:52:21.564Z,3.97
2022-09-19T15:54:54.219Z,7.22
2022-09-19T15:57:46.245Z,3.38
2022-09-19T16:00:30.267Z,6.15
2022-09-19T16:03:14.101Z,4.10
2022-09-19T16:05:52.625Z,4.82
2022-09-19T16:08:50.599Z,2.72
2022-09-19T16:11:44.986Z,5.45
2022-09-19T16:14:29.814Z,3.28
2022-09-19T16:19:43.841Z,3.60
2022-09-19T16:22:34.504Z,3.78
2022-09-19T16:25:07.071Z,2.85
2022-09-19T16:27:40.911Z,2.23
2022-09-19T16:30:14.632Z,3.75
2022-09-19T16:32:47.651Z,6.25
2022-09-19T16:38:12.943Z,4.22
2022-09-19T16:40:56.033Z,3.38
2022-09-19T16:43:45.430Z,2.58
2022-09-19T16:46:15.644Z,3.58
2022-09-19T16:48:47.883Z,2.88
2022-09-19T16:51:16.595Z,6.95
2022-09-19T16:53:47.240Z,3.17
2022-09-19T16:56:21.964Z,3.17
2022-09-19T16:58:54.974Z,6.22
2022-09-19T17:01:25.491Z,3.60
2022-09-19T17:03:56.857Z,4.18
2022-09-19T17:06:27.693Z,2.47
2022-09-19T17:08:59.918Z,5.25
2022-09-19T17:11:30.636Z,3.55
2022-09-19T17:14:04.163Z,5.60
2022-09-19T17:16:33.588Z,3.17
2022-09-19T17:19:06.442Z,3.30
2022-09-19T17:21:36.781Z,3.88
2022-09-19T17:24:07.894Z,4.40
2022-09-19T17:26:39.705Z,3.42
2022-09-19T17:29:12.930Z,11.43
2022-09-19T17:31:43.728Z,3.47
2022-09-19T17:34:15.315Z,3.88
2022-09-19T17:36:46.421Z,5.20
2022-09-19T17:39:16.715Z,4.88
2022-09-19T17:41:48.625Z,4.65
2022-09-19T17:44:18.316Z,5.40
2022-09-19T17:46:49.179Z,7.03
2022-09-19T17:49:20.221Z,6.05
2022-09-19T17:51:48.421Z,6.78
2022-09-19T17:54:19.445Z,11.40
2022-09-19T17:56:50.085Z,10.38
2022-09-19T17:59:23.951Z,6.80
2022-09-19T18:02:10.650Z,5.40
2022-09-19T18:04:43.701Z,10.57
2022-09-19T18:07:14.609Z,14.57
2022-09-19T18:09:45.288Z,8.98
2022-09-19T18:12:16.646Z,13.15
2022-09-19T18:14:49.097Z,7.03
2022-09-19T18:17:25.137Z,7.43
2022-09-19T18:19:55.885Z,6.28
2022-09-19T18:22:29.469Z,7.93
2022-09-19T18:24:59.064Z,8.07
2022-09-19T18:27:32.070Z,7.05
2022-09-19T18:30:04.159Z,9.25
2022-09-19T18:32:38.214Z,5.95
2022-09-19T18:35:10.644Z,5.55
2022-09-19T18:37:43.387Z,10.23
2022-09-19T18:40:18.401Z,5.18
2022-09-19T18:42:46.568Z,7.05
2022-09-19T18:45:18.754Z,7.40
2022-09-19T18:47:52.043Z,4.75
2022-09-19T18:50:21.902Z,6.13
2022-09-19T18:52:51.855Z,6.53
2022-09-19T18:55:20.697Z,4.35
2022-09-19T18:57:50.539Z,6.50
2022-09-19T19:00:22.008Z,8.23
2022-09-19T19:02:50.919Z,8.10
2022-09-19T19:05:21.062Z,8.40
2022-09-19T19:07:48.660Z,7.72
2022-09-19T19:10:23.624Z,9.27
2022-09-19T19:12:53.448Z,7.53
2022-09-19T19:15:20.537Z,6.90
2022-09-19T19:17:51.804Z,13.77
2022-09-19T19:20:23.237Z,8.02
2022-09-19T19:22:56.163Z,3.97
2022-09-19T19:25:31.096Z,10.52
2022-09-19T19:28:01.996Z,9.02
2022-09-19T19:30:30.299Z,10.32
2022-09-19T19:33:02.251Z,9.80
2022-09-19T19:35:35.435Z,8.85
2022-09-19T19:38:03.322Z,9.45
2022-09-19T19:40:30.918Z,11.93
2022-09-19T19:43:03.763Z,9.95
2022-09-19T19:45:35.870Z,5.30
2022-09-19T19:48:06.731Z,7.20
2022-09-19T19:50:39.906Z,10.77
2022-09-19T19:53:12.482Z,7.25
2022-09-19T19:55:41.649Z,10.50
2022-09-19T19:58:12.875Z,10.05
2022-09-19T20:00:42.908Z,7.40
2022-09-19T20:03:15.012Z,9.57
2022-09-19T20:05:58.119Z,12.63
2022-09-19T20:08:30.976Z,13.60
2022-09-19T20:11:03.622Z,9.57
2022-09-19T20:13:35.253Z,8.30
2022-09-19T20:16:15.821Z,11.75
2022-09-19T20:18:55.198Z,3.35
2022-09-19T20:21:30.939Z,8.77
2022-09-19T20:24:06.114Z,5.40
2022-09-19T20:26:39.029Z,4.95
2022-09-19T20:29:10.270Z,8.10
2022-09-19T20:31:40.335Z,4.93
2022-09-19T20:34:13.471Z,6.35
2022-09-19T20:36:48.557Z,4.88
2022-09-19T20:39:19.111Z,6.75
2022-09-19T20:41:56.212Z,3.60
2022-09-19T20:44:29.513Z,4.00
2022-09-19T20:47:00.273Z,6.03
2022-09-19T20:49:31.480Z,7.32
2022-09-19T20:52:05.264Z,6.07
2022-09-19T20:54:43.335Z,10.93
2022-09-19T20:57:13.171Z,11.63
2022-09-19T20:59:43.848Z,12.65
2022-09-19T21:02:12.900Z,16.90
2022-09-19T21:04:42.957Z,12.43
2022-09-19T21:07:13.624Z,8.98
2022-09-19T21:09:44.495Z,12.30
2022-09-19T21:12:42.436Z,11.77
2022-09-19T21:15:08.841Z,10.15
2022-09-19T21:17:39.956Z,10.73
2022-09-19T21:20:11.234Z,11.88
2022-09-19T21:22:43.490Z,14.52
2022-09-19T21:25:12.817Z,17.63
2022-09-19T21:27:46.031Z,14.32
2022-09-19T21:30:16.928Z,17.35
2022-09-19T21:32:45.047Z,16.58
2022-09-19T21:35:16.423Z,18.38
2022-09-19T21:37:47.288Z,19.02
2022-09-19T21:40:19.331Z,19.55
2022-09-19T21:42:51.777Z,17.80
2022-09-19T21:45:21.765Z,12.43
2022-09-19T21:47:51.177Z,17.85
2022-09-19T21:50:22.276Z,17.02
2022-09-19T21:52:53.286Z,17.90
2022-09-19T21:55:23.433Z,18.67
2022-09-19T21:57:52.697Z,19.83
2022-09-19T22:00:25.965Z,12.68
2022-09-19T22:02:56.016Z,16.10
2022-09-19T22:05:23.415Z,22.88
2022-09-19T22:07:52.959Z,16.80
2022-09-19T22:10:26.571Z,16.08
2022-09-19T22:12:58.051Z,14.90
2022-09-19T22:15:29.946Z,14.27
2022-09-19T22:18:01.443Z,13.15
2022-09-19T22:20:33.665Z,10.38
2022-09-19T22:23:05.274Z,15.38
2022-09-19T22:25:33.903Z,16.10
2022-09-19T22:28:04.035Z,12.65
2022-09-19T22:30:34.013Z,11.68
2022-09-19T22:33:06.722Z,19.33
2022-09-19T22:35:43.305Z,17.33
2022-09-19T22:38:14.761Z,14.48
2022-09-19T22:40:44.988Z,17.15
2022-09-19T22:43:16.553Z,18.63
2022-09-19T22:45:46.912Z,20.58
2022-09-19T22:48:18.044Z,20.17
2022-09-19T22:50:48.560Z,16.77
2022-09-19T22:53:19.073Z,19.35
2022-09-19T22:56:04.251Z,20.95
2022-09-19T22:58:34.641Z,16.48
2022-09-19T23:01:17.808Z,16.92
2022-09-19T23:03:46.639Z,14.68
2022-09-19T23:06:27.638Z,17.33
2022-09-19T23:09:03.267Z,15.23
2022-09-19T23:11:34.930Z,14.27
2022-09-19T23:14:05.240Z,17.25
2022-09-19T23:16:38.231Z,13.07
2022-09-19T23:19:15.445Z,13.25
2022-09-19T23:21:49.243Z,14.95
2022-09-19T23:24:46.749Z,13.18
2022-09-19T23:27:15.328Z,14.43
2022-09-19T23:29:45.549Z,16.58
2022-09-19T23:32:13.817Z,14.15
2022-09-19T23:34:44.112Z,15.57
2022-09-19T23:37:13.903Z,13.82
2022-09-19T23:39:42.960Z,15.25
2022-09-19T23:42:13.081Z,12.43
2022-09-19T23:44:41.711Z,14.88
2022-09-19T23:47:11.825Z,14.13
2022-09-19T23:49:42.139Z,14.52
2022-09-19T23:52:15.707Z,13.23
2022-09-19T23:54:45.826Z,12.20
2022-09-19T23:57:15.250Z,12.18
2022-09-19T23:59:43.633Z,13.32
